NCAR-RAP Real-Time Weather Data

Output produced by METARs form (23 January 2018  15:55 UTC)
found at http://weather.rap.ucar.edu/surface/
 
Conditions at: KLAL observed 23 January 2018  14:45 UTC
Temperature: 22.0°C (72°F)
Dewpoint: 21.0°C (70°F) [RH = 94%]
Pressure (altimeter): 30.08 inches Hg (1018.7 mb)
Winds: from the SSW (210 degrees) at 7 MPH (6 knots; 3.1 m/s)
Visibility: 7 miles (11 km)
Ceiling: at least 12,000 feet AGL
Clouds: scattered clouds at 1100 feet AGL
Present Weather: no significant weather observed at this time
KLAL 231445Z 21006KT 7SM SCT011 22/21 A3008

Conditions at: KLAL observed 23 January 2018  13:50 UTC
Temperature: 21.0°C (70°F)
Dewpoint: 20.0°C (68°F) [RH = 94%]
Pressure (altimeter): 30.06 inches Hg (1018.0 mb)
Winds: from the S (190 degrees) at 5 MPH (4 knots; 2.1 m/s)
Visibility: 7 miles (11 km)
Ceiling: at least 12,000 feet AGL
Clouds: scattered clouds at 700 feet AGL
Present Weather: no significant weather observed at this time
KLAL 231350Z 19004KT 7SM SCT007 21/20 A3006

Conditions at: KLAL observed 23 January 2018  12:50 UTC
Temperature: 19.0°C (66°F)
Dewpoint: 19.0°C (66°F) [RH = 100%]
Pressure (altimeter): 30.05 inches Hg (1017.7 mb)
Winds: from the SSW (210 degrees) at 7 MPH (6 knots; 3.1 m/s)
Visibility: 7 miles (11 km)
Ceiling: 11000 feet AGL
Clouds: scattered clouds at 7500 feet AGL
broken clouds at 11000 feet AGL
Present Weather: DZ  (drizzle)
KLAL 231250Z 21006KT 7SM DZ SCT075 BKN110 19/19 A3005

Conditions at: KLAL observed 23 January 2018  11:50 UTC
Temperature: 19.0°C (66°F)
Dewpoint: 19.0°C (66°F) [RH = 100%]
Pressure (altimeter): 30.05 inches Hg (1017.7 mb)
Winds: from the SSW (210 degrees) at 7 MPH (6 knots; 3.1 m/s)
Visibility: 10 or more miles (16+ km)
Ceiling: 8500 feet AGL
Clouds: scattered clouds at 7500 feet AGL
broken clouds at 8500 feet AGL
Present Weather: DZ  (drizzle)
KLAL 231150Z 21006KT 10SM DZ SCT075 BKN085 19/19 A3005

Conditions at: KLAL observed 23 January 2018  10:50 UTC
Temperature: 19.0°C (66°F)
Dewpoint: 19.0°C (66°F) [RH = 100%]
Pressure (altimeter): 30.05 inches Hg (1017.7 mb)
Winds: from the SW (220 degrees) at 5 MPH (4 knots; 2.1 m/s)
Visibility: 7 miles (11 km)
Ceiling: 8000 feet AGL
Clouds: scattered clouds at 6000 feet AGL
broken clouds at 8000 feet AGL
Present Weather: RA  (rain)
KLAL 231050Z 22004KT 7SM RA SCT060 BKN080 19/19 A3005

Conditions at: KLAL observed 23 January 2018  09:35 UTC
Temperature: 19.0°C (66°F)
Dewpoint: 18.0°C (64°F) [RH = 94%]
Pressure (altimeter): 30.02 inches Hg (1016.7 mb)
Winds: from the S (180 degrees) at 9 MPH (8 knots; 4.2 m/s)
Visibility: 10 or more miles (16+ km)
Ceiling: 12000 feet AGL
Clouds: scattered clouds at 6000 feet AGL
broken clouds at 12000 feet AGL
Present Weather: automated observation with no human augmentation;
there may or may not be significant weather present at this time
KLAL 230935Z AUTO 18008KT 10SM SCT060 BKN120 19/18 A3002 RMK AO2

Conditions at: KLAL observed 23 January 2018  09:15 UTC
Temperature: 18.0°C (64°F)
Dewpoint: 18.0°C (64°F) [RH = 100%]
Pressure (altimeter): 30.02 inches Hg (1016.7 mb)
Winds: from the S (180 degrees) at 9 MPH (8 knots; 4.2 m/s)
Visibility: 10 or more miles (16+ km)
Ceiling: 11000 feet AGL
Clouds: scattered clouds at 6000 feet AGL
broken clouds at 11000 feet AGL
Present Weather: automated observation with no human augmentation;
there may or may not be significant weather present at this time
KLAL 230915Z AUTO 18008KT 10SM SCT060 BKN110 18/18 A3002 RMK AO2

Conditions at: KLAL observed 23 January 2018  08:55 UTC
Temperature: 18.0°C (64°F)
Dewpoint: 18.0°C (64°F) [RH = 100%]
Pressure (altimeter): 30.02 inches Hg (1016.7 mb)
Winds: from the S (180 degrees) at 8 MPH (7 knots; 3.6 m/s)
Visibility: 10 or more miles (16+ km)
Ceiling: 6000 feet AGL
Clouds: overcast cloud deck at 6000 feet AGL
Present Weather: automated observation with no human augmentation;
there may or may not be significant weather present at this time
KLAL 230855Z AUTO 18007KT 10SM OVC060 18/18 A3002 RMK AO2

Conditions at: KLAL observed 23 January 2018  08:35 UTC
Temperature: 18.0°C (64°F)
Dewpoint: 18.0°C (64°F) [RH = 100%]
Pressure (altimeter): 30.03 inches Hg (1017.0 mb)
Winds: from the SSW (200 degrees) at 3 MPH (3 knots; 1.6 m/s)
Visibility: 10 or more miles (16+ km)
Ceiling: 6000 feet AGL
Clouds: broken clouds at 6000 feet AGL
overcast cloud deck at 8000 feet AGL
Present Weather: automated observation with no human augmentation;
there may or may not be significant weather present at this time
KLAL 230835Z AUTO 20003KT 10SM BKN060 OVC080 18/18 A3003 RMK AO2

Conditions at: KLAL observed 23 January 2018  07:55 UTC
Temperature: 18.0°C (64°F)
Dewpoint: 18.0°C (64°F) [RH = 100%]
Pressure (altimeter): 30.03 inches Hg (1017.0 mb)
Winds: calm
Visibility: 10 or more miles (16+ km)
Ceiling: 6000 feet AGL
Clouds: overcast cloud deck at 6000 feet AGL
Present Weather: automated observation with no human augmentation;
there may or may not be significant weather present at this time
KLAL 230755Z AUTO 00000KT 10SM OVC060 18/18 A3003 RMK AO2

Conditions at: KLAL observed 23 January 2018  07:35 UTC
Temperature: 18.0°C (64°F)
Dewpoint: 18.0°C (64°F) [RH = 100%]
Pressure (altimeter): 30.03 inches Hg (1017.0 mb)
Winds: from the E (100 degrees) at 3 MPH (3 knots; 1.6 m/s)
Visibility: 10 or more miles (16+ km)
Ceiling: 6000 feet AGL
Clouds: overcast cloud deck at 6000 feet AGL
Present Weather: automated observation with no human augmentation;
there may or may not be significant weather present at this time
KLAL 230735Z AUTO 10003KT 10SM OVC060 18/18 A3003 RMK AO2

Conditions at: KLAL observed 23 January 2018  07:15 UTC
Temperature: 18.0°C (64°F)
Dewpoint: 18.0°C (64°F) [RH = 100%]
Pressure (altimeter): 30.04 inches Hg (1017.4 mb)
Winds: calm
Visibility: 10 or more miles (16+ km)
Ceiling: 6000 feet AGL
Clouds: overcast cloud deck at 6000 feet AGL
Present Weather: automated observation with no human augmentation;
there may or may not be significant weather present at this time
KLAL 230715Z AUTO 00000KT 10SM OVC060 18/18 A3004 RMK AO2

Conditions at: KLAL observed 23 January 2018  06:55 UTC
Temperature: 18.0°C (64°F)
Dewpoint: 18.0°C (64°F) [RH = 100%]
Pressure (altimeter): 30.04 inches Hg (1017.4 mb)
Winds: calm
Visibility: 10 or more miles (16+ km)
Ceiling: 6000 feet AGL
Clouds: overcast cloud deck at 6000 feet AGL
Present Weather: automated observation with no human augmentation;
there may or may not be significant weather present at this time
KLAL 230655Z AUTO 00000KT 10SM OVC060 18/18 A3004 RMK AO2

Conditions at: KLAL observed 23 January 2018  06:35 UTC
Temperature: 18.0°C (64°F)
Dewpoint: 17.0°C (63°F) [RH = 94%]
Pressure (altimeter): 30.04 inches Hg (1017.4 mb)
Winds: calm
Visibility: 10 or more miles (16+ km)
Ceiling: 6000 feet AGL
Clouds: overcast cloud deck at 6000 feet AGL
Present Weather: automated observation with no human augmentation;
there may or may not be significant weather present at this time
KLAL 230635Z AUTO 00000KT 10SM OVC060 18/17 A3004 RMK AO2

Conditions at: KLAL observed 23 January 2018  06:15 UTC
Temperature: 18.0°C (64°F)
Dewpoint: 17.0°C (63°F) [RH = 94%]
Pressure (altimeter): 30.04 inches Hg (1017.4 mb)
Winds: calm
Visibility: 10 or more miles (16+ km)
Ceiling: 9500 feet AGL
Clouds: scattered clouds at 6000 feet AGL
broken clouds at 9500 feet AGL
overcast cloud deck at 12000 feet AGL
Present Weather: automated observation with no human augmentation;
there may or may not be significant weather present at this time
KLAL 230615Z AUTO 00000KT 10SM SCT060 BKN095 OVC120 18/17 A3004 RMK AO2

Conditions at: KLAL observed 23 January 2018  05:55 UTC
Temperature: 19.0°C (66°F)
Dewpoint: 17.0°C (63°F) [RH = 88%]
Pressure (altimeter): 30.05 inches Hg (1017.7 mb)
Winds: from the S (190 degrees) at 5 MPH (4 knots; 2.1 m/s)
Visibility: 7 miles (11 km)
Ceiling: 9500 feet AGL
Clouds: scattered clouds at 3100 feet AGL
broken clouds at 9500 feet AGL
overcast cloud deck at 12000 feet AGL
Present Weather: RA  (rain)
KLAL 230555Z AUTO 19004KT 7SM RA SCT031 BKN095 OVC120 19/17 A3005 RMK AO2 LTG DSNT SW

Conditions at: KLAL observed 23 January 2018  05:35 UTC
Temperature: 19.0°C (66°F)
Dewpoint: 16.0°C (61°F) [RH = 83%]
Pressure (altimeter): 30.05 inches Hg (1017.7 mb)
Winds: from the S (180 degrees) at 6 MPH (5 knots; 2.6 m/s)
Visibility: 7 miles (11 km)
Ceiling: 7500 feet AGL
Clouds: scattered clouds at 6500 feet AGL
broken clouds at 7500 feet AGL
overcast cloud deck at 9500 feet AGL
Present Weather: DZ  (drizzle)
KLAL 230535Z AUTO 18005KT 7SM DZ SCT065 BKN075 OVC095 19/16 A3005 RMK AO2

Conditions at: KLAL observed 23 January 2018  05:15 UTC
Temperature: 20.0°C (68°F)
Dewpoint: 16.0°C (61°F) [RH = 78%]
Pressure (altimeter): 30.06 inches Hg (1018.0 mb)
Winds: from the WSW (250 degrees) at 3 MPH (3 knots; 1.6 m/s)
Visibility: 10 or more miles (16+ km)
Ceiling: 6500 feet AGL
Clouds: scattered clouds at 5500 feet AGL
overcast cloud deck at 6500 feet AGL
Present Weather: automated observation with no human augmentation;
there may or may not be significant weather present at this time
KLAL 230515Z AUTO 25003KT 10SM SCT055 OVC065 20/16 A3006 RMK AO2

Conditions at: KLAL observed 23 January 2018  04:55 UTC
Temperature: 20.0°C (68°F)
Dewpoint: 16.0°C (61°F) [RH = 78%]
Pressure (altimeter): 30.06 inches Hg (1018.0 mb)
Winds: from the WSW (240 degrees) at 5 MPH (4 knots; 2.1 m/s)
Visibility: 10 or more miles (16+ km)
Ceiling: 6500 feet AGL
Clouds: broken clouds at 6500 feet AGL
overcast cloud deck at 7500 feet AGL
Present Weather: automated observation with no human augmentation;
there may or may not be significant weather present at this time
KLAL 230455Z AUTO 24004KT 10SM BKN065 OVC075 20/16 A3006 RMK AO2

Conditions at: KLAL observed 23 January 2018  04:35 UTC
Temperature: 20.0°C (68°F)
Dewpoint: 16.0°C (61°F) [RH = 78%]
Pressure (altimeter): 30.06 inches Hg (1018.0 mb)
Winds: from the SSE (150 degrees) at 5 MPH (4 knots; 2.1 m/s)
Visibility: 10 or more miles (16+ km)
Ceiling: at least 12,000 feet AGL
Clouds: scattered clouds at 6000 feet AGL
scattered clouds at 8000 feet AGL
scattered clouds at 12000 feet AGL
Present Weather: automated observation with no human augmentation;
there may or may not be significant weather present at this time
KLAL 230435Z AUTO 15004KT 10SM SCT060 SCT080 SCT120 20/16 A3006 RMK AO2

Conditions at: KLAL observed 23 January 2018  03:55 UTC
Temperature: 20.0°C (68°F)
Dewpoint: 16.0°C (61°F) [RH = 78%]
Pressure (altimeter): 30.06 inches Hg (1018.0 mb)
Winds: from the ESE (120 degrees) at 7 MPH (6 knots; 3.1 m/s)
Visibility: 10 or more miles (16+ km)
Ceiling: at least 12,000 feet AGL
Clouds: scattered clouds at 7000 feet AGL
scattered clouds at 10000 feet AGL
Present Weather: automated observation with no human augmentation;
there may or may not be significant weather present at this time
KLAL 230355Z AUTO 12006KT 10SM SCT070 SCT100 20/16 A3006 RMK AO2

Conditions at: KLAL observed 23 January 2018  03:35 UTC
Temperature: 21.0°C (70°F)
Dewpoint: 16.0°C (61°F) [RH = 73%]
Pressure (altimeter): 30.07 inches Hg (1018.4 mb)
Winds: from the ESE (110 degrees) at 6 MPH (5 knots; 2.6 m/s)
Visibility: 10 or more miles (16+ km)
Ceiling: at least 12,000 feet AGL
Clouds: scattered clouds at 4800 feet AGL
scattered clouds at 6000 feet AGL
scattered clouds at 10000 feet AGL
Present Weather: automated observation with no human augmentation;
there may or may not be significant weather present at this time
KLAL 230335Z AUTO 11005KT 10SM SCT048 SCT060 SCT100 21/16 A3007 RMK AO2

Conditions at: KLAL observed 23 January 2018  03:15 UTC
Temperature: 21.0°C (70°F)
Dewpoint: 16.0°C (61°F) [RH = 73%]
Pressure (altimeter): 30.07 inches Hg (1018.4 mb)
Winds: from the SE (140 degrees) at 6 MPH (5 knots; 2.6 m/s)
Visibility: 10 or more miles (16+ km)
Ceiling: 10000 feet AGL
Clouds: scattered clouds at 4800 feet AGL
scattered clouds at 6000 feet AGL
broken clouds at 10000 feet AGL
Present Weather: automated observation with no human augmentation;
there may or may not be significant weather present at this time
KLAL 230315Z AUTO 14005KT 10SM SCT048 SCT060 BKN100 21/16 A3007 RMK AO2

Conditions at: KLAL observed 23 January 2018  02:45 UTC
Temperature: 22.0°C (72°F)
Dewpoint: 16.0°C (61°F) [RH = 69%]
Pressure (altimeter): 30.07 inches Hg (1018.4 mb)
Winds: from the SSE (150 degrees) at 7 MPH (6 knots; 3.1 m/s)
Visibility: 10 or more miles (16+ km)
Ceiling: 10000 feet AGL
Clouds: broken clouds at 10000 feet AGL
Present Weather: no significant weather observed at this time
KLAL 230245Z 15006KT 10SM BKN100 22/16 A3007

Conditions at: KLAL observed 23 January 2018  01:45 UTC
Temperature: 22.0°C (72°F)
Dewpoint: 17.0°C (63°F) [RH = 73%]
Pressure (altimeter): 30.06 inches Hg (1018.0 mb)
Winds: from the SSE (150 degrees) at 8 MPH (7 knots; 3.6 m/s)
Visibility: 10 or more miles (16+ km)
Ceiling: at least 12,000 feet AGL
Clouds: scattered clouds at 10000 feet AGL
Present Weather: no significant weather observed at this time
KLAL 230145Z 15007KT 10SM SCT100 22/17 A3006

Conditions at: KLAL observed 23 January 2018  00:45 UTC
Temperature: 23.0°C (73°F)
Dewpoint: 17.0°C (63°F) [RH = 69%]
Pressure (altimeter): 30.05 inches Hg (1017.7 mb)
Winds: from the SE (130 degrees) at 7 MPH (6 knots; 3.1 m/s)
Visibility: 10 or more miles (16+ km)
Ceiling: 11000 feet AGL
Clouds: scattered clouds at 5000 feet AGL
overcast cloud deck at 11000 feet AGL
Present Weather: no significant weather observed at this time
KLAL 230045Z 13006KT 10SM SCT050 OVC110 23/17 A3005

Conditions at: KLAL observed 22 January 2018  22:45 UTC
Temperature: 25.0°C (77°F)
Dewpoint: 17.0°C (63°F) [RH = 61%]
Pressure (altimeter): 30.04 inches Hg (1017.4 mb)
Winds: from the SE (140 degrees) at 7 MPH (6 knots; 3.1 m/s)
Visibility: 10 or more miles (16+ km)
Ceiling: 5000 feet AGL
Clouds: broken clouds at 5000 feet AGL
Present Weather: no significant weather observed at this time
KLAL 222245Z 14006KT 10SM BKN050 25/17 A3004

Conditions at: KLAL observed 22 January 2018  21:50 UTC
Temperature: 27.0°C (81°F)
Dewpoint: 16.0°C (61°F) [RH = 51%]
Pressure (altimeter): 30.03 inches Hg (1017.0 mb)
Winds: from the SSE (160 degrees) at 12 MPH (10 knots; 5.2 m/s)
Visibility: 10 or more miles (16+ km)
Ceiling: 5000 feet AGL
Clouds: broken clouds at 5000 feet AGL
Present Weather: no significant weather observed at this time
KLAL 222150Z 16010KT 10SM BKN050 27/16 A3003

Conditions at: KLAL observed 22 January 2018  20:50 UTC
Temperature: 27.0°C (81°F)
Dewpoint: 15.0°C (59°F) [RH = 48%]
Pressure (altimeter): 30.02 inches Hg (1016.7 mb)
Winds: from the SSE (160 degrees) at 12 MPH (10 knots; 5.2 m/s)
Visibility: 10 or more miles (16+ km)
Ceiling: 4500 feet AGL
Clouds: broken clouds at 4500 feet AGL
Present Weather: no significant weather observed at this time
KLAL 222050Z 16010KT 10SM BKN045 27/15 A3002

Conditions at: KLAL observed 22 January 2018  19:50 UTC
Temperature: 27.0°C (81°F)
Dewpoint: 16.0°C (61°F) [RH = 51%]
Pressure (altimeter): 30.03 inches Hg (1017.0 mb)
Winds: from the SSE (160 degrees) at 12 MPH (10 knots; 5.2 m/s)
gusting to 21 MPH (18 knots; 9.4 m/s)
Visibility: 10 or more miles (16+ km)
Ceiling: 4300 feet AGL
Clouds: broken clouds at 4300 feet AGL
Present Weather: no significant weather observed at this time
KLAL 221950Z 16010G18KT 10SM BKN043 27/16 A3003

Conditions at: KLAL observed 22 January 2018  18:50 UTC
Temperature: 27.0°C (81°F)
Dewpoint: 17.0°C (63°F) [RH = 54%]
Pressure (altimeter): 30.05 inches Hg (1017.7 mb)
Winds: from the SSE (150 degrees) at 12 MPH (10 knots; 5.2 m/s)
gusting to 21 MPH (18 knots; 9.4 m/s)
Visibility: 10 or more miles (16+ km)
Ceiling: 4000 feet AGL
Clouds: broken clouds at 4000 feet AGL
Present Weather: no significant weather observed at this time
KLAL 221850Z 15010G18KT 10SM BKN040 27/17 A3005

Conditions at: KLAL observed 22 January 2018  17:50 UTC
Temperature: 26.0°C (79°F)
Dewpoint: 17.0°C (63°F) [RH = 58%]
Pressure (altimeter): 30.09 inches Hg (1019.0 mb)
Winds: from the S (170 degrees) at 12 MPH (10 knots; 5.2 m/s)
gusting to 21 MPH (18 knots; 9.4 m/s)
Visibility: 10 or more miles (16+ km)
Ceiling: 4000 feet AGL
Clouds: broken clouds at 4000 feet AGL
Present Weather: no significant weather observed at this time
KLAL 221750Z 17010G18KT 10SM BKN040 26/17 A3009

Conditions at: KLAL observed 22 January 2018  16:50 UTC
Temperature: 25.0°C (77°F)
Dewpoint: 17.0°C (63°F) [RH = 61%]
Pressure (altimeter): 30.13 inches Hg (1020.4 mb)
Winds: from the SE (140 degrees) at 15 MPH (13 knots; 6.8 m/s)
gusting to 23 MPH (20 knots; 10.4 m/s)
Visibility: 10 or more miles (16+ km)
Ceiling: 2500 feet AGL
Clouds: broken clouds at 2500 feet AGL
Present Weather: no significant weather observed at this time
KLAL 221650Z 14013G20KT 10SM BKN025 25/17 A3013